createdAt,value
2022-08-18T00:02:17.742Z,61.73
2022-08-18T00:04:49.206Z,61.49
2022-08-18T00:07:27.784Z,61.45
2022-08-18T00:09:54.769Z,61.53
2022-08-18T00:12:33.642Z,61.58
2022-08-18T00:15:04.436Z,61.52
2022-08-18T00:17:34.633Z,61.58
2022-08-18T00:20:01.786Z,61.41
2022-08-18T00:22:28.841Z,61.50
2022-08-18T00:24:57.487Z,61.72
2022-08-18T00:27:29.813Z,61.79
2022-08-18T00:29:58.747Z,61.70
2022-08-18T00:32:34.470Z,61.80
2022-08-18T00:35:06.879Z,61.67
2022-08-18T00:37:33.898Z,61.57
2022-08-18T00:40:00.918Z,61.86
2022-08-18T00:42:31.040Z,61.79
2022-08-18T00:45:03.481Z,61.74
2022-08-18T00:47:41.421Z,61.73
2022-08-18T00:50:37.801Z,61.76
2022-08-18T00:53:36.085Z,61.81
2022-08-18T00:56:10.930Z,61.72
2022-08-18T00:59:03.059Z,61.75
2022-08-18T01:01:31.610Z,61.78
2022-08-18T01:04:21.744Z,61.77
2022-08-18T01:06:52.697Z,61.88
2022-08-18T01:09:19.538Z,61.98
2022-08-18T01:11:46.490Z,62.00
2022-08-18T01:14:16.111Z,61.88
2022-08-18T01:17:02.195Z,62.00
2022-08-18T01:19:47.683Z,61.95
2022-08-18T01:22:20.864Z,61.90
2022-08-18T01:25:06.466Z,62.03
2022-08-18T01:27:34.443Z,62.27
2022-08-18T01:30:09.980Z,62.43
2022-08-18T01:32:37.297Z,62.38
2022-08-18T01:35:04.951Z,62.54
2022-08-18T01:37:31.874Z,62.55
2022-08-18T01:41:11.177Z,62.61
2022-08-18T01:42:46.864Z,62.45
2022-08-18T01:45:14.845Z,62.28
2022-08-18T01:47:47.504Z,62.39
2022-08-18T01:50:25.533Z,62.39
2022-08-18T01:52:53.790Z,62.48
2022-08-18T01:55:21.277Z,62.37
2022-08-18T01:57:48.297Z,62.43
2022-08-18T02:00:16.717Z,62.45
2022-08-18T02:02:43.867Z,62.30
2022-08-18T02:05:23.518Z,62.30
2022-08-18T02:07:54.511Z,62.29
2022-08-18T02:10:21.711Z,62.32
2022-08-18T02:12:48.659Z,62.32
2022-08-18T02:15:15.824Z,62.45
2022-08-18T02:17:44.211Z,62.50
2022-08-18T02:20:14.919Z,62.48
2022-08-18T02:22:42.196Z,62.62
2022-08-18T02:25:10.180Z,62.55
2022-08-18T02:31:14.738Z,62.60
2022-08-18T02:33:46.921Z,62.44
2022-08-18T02:36:20.727Z,62.49
2022-08-18T02:38:56.621Z,62.45
2022-08-18T02:41:29.383Z,62.35
2022-08-18T02:43:58.274Z,62.46
2022-08-18T02:46:30.234Z,62.33
2022-08-18T02:48:59.974Z,62.38
2022-08-18T02:51:27.103Z,62.52
2022-08-18T02:53:54.439Z,62.40
2022-08-18T02:56:40.303Z,62.38
2022-08-18T02:59:20.075Z,62.57
2022-08-18T03:01:49.168Z,62.67
2022-08-18T03:04:22.897Z,62.88
2022-08-18T03:06:52.714Z,62.83
2022-08-18T03:09:19.866Z,62.72
2022-08-18T03:11:46.917Z,62.68
2022-08-18T03:14:14.713Z,62.53
2022-08-18T03:16:52.849Z,62.47
2022-08-18T03:19:21.392Z,62.61
2022-08-18T03:21:48.642Z,62.58
2022-08-18T03:27:56.705Z,62.60
2022-08-18T03:30:24.069Z,62.72
2022-08-18T03:32:51.125Z,62.64
2022-08-18T03:35:18.391Z,62.71
2022-08-18T03:37:45.386Z,62.61
2022-08-18T03:40:12.650Z,62.55
2022-08-18T03:42:39.755Z,62.80
2022-08-18T03:45:17.685Z,62.81
2022-08-18T03:47:46.178Z,62.79
2022-08-18T03:50:14.168Z,62.75
2022-08-18T03:52:41.952Z,63.07
2022-08-18T03:55:09.763Z,63.21
2022-08-18T03:57:39.296Z,63.26
2022-08-18T04:00:07.143Z,63.29
2022-08-18T04:02:34.184Z,63.20
2022-08-18T04:05:01.336Z,63.36
2022-08-18T04:07:32.341Z,63.32
2022-08-18T04:09:59.332Z,63.47
2022-08-18T04:12:26.599Z,63.64
2022-08-18T04:14:53.659Z,63.77
2022-08-18T04:17:25.314Z,63.64
2022-08-18T04:19:55.940Z,63.75
2022-08-18T04:22:23.007Z,64.00
2022-08-18T04:24:50.826Z,64.07
2022-08-18T04:27:18.964Z,64.04
2022-08-18T04:29:46.326Z,64.03
2022-08-18T04:32:13.379Z,64.19
2022-08-18T04:34:40.531Z,64.25
2022-08-18T04:37:09.906Z,64.47
2022-08-18T04:39:37.827Z,64.63
2022-08-18T04:42:06.310Z,64.48
2022-08-18T04:44:34.582Z,64.53
2022-08-18T04:47:02.055Z,64.62
2022-08-18T04:49:30.530Z,64.45
2022-08-18T04:52:34.205Z,64.56
2022-08-18T04:55:04.328Z,64.52
2022-08-18T04:57:35.103Z,64.48
2022-08-18T05:00:03.052Z,64.53
2022-08-18T05:02:33.244Z,64.39
2022-08-18T05:05:03.508Z,64.42
2022-08-18T05:07:31.110Z,64.31
2022-08-18T05:09:58.267Z,64.27
2022-08-18T05:12:25.905Z,64.18
2022-08-18T05:14:54.109Z,64.10
2022-08-18T05:17:21.060Z,64.23
2022-08-18T05:19:49.818Z,64.12
2022-08-18T05:22:24.243Z,63.87
2022-08-18T05:24:55.810Z,63.94
2022-08-18T05:27:22.771Z,64.13
2022-08-18T05:29:51.702Z,64.32
2022-08-18T05:32:42.573Z,64.06
2022-08-18T05:35:12.486Z,63.89
2022-08-18T05:38:08.321Z,63.72
2022-08-18T05:40:35.473Z,63.41
2022-08-18T05:43:02.612Z,63.27
2022-08-18T05:45:29.673Z,63.49
2022-08-18T05:48:02.377Z,63.11
2022-08-18T05:50:30.078Z,62.19
2022-08-18T05:53:12.504Z,62.82
2022-08-18T05:55:59.846Z,62.40
2022-08-18T05:58:32.956Z,62.67
2022-08-18T06:01:24.661Z,62.37
2022-08-18T06:04:16.388Z,62.07
2022-08-18T06:06:47.464Z,62.45
2022-08-18T06:09:44.485Z,62.04
2022-08-18T06:12:47.122Z,62.39
2022-08-18T06:15:14.751Z,62.35
2022-08-18T06:18:15.980Z,62.04
2022-08-18T06:20:53.882Z,61.29
2022-08-18T06:23:28.193Z,61.22
2022-08-18T06:26:09.689Z,61.50
2022-08-18T06:29:06.541Z,61.07
2022-08-18T06:31:36.550Z,60.44
2022-08-18T06:34:14.347Z,59.81
2022-08-18T06:37:20.511Z,60.01
2022-08-18T06:39:52.534Z,60.00
2022-08-18T06:42:30.708Z,59.31
2022-08-18T06:45:01.216Z,59.29
2022-08-18T06:47:53.237Z,59.18
2022-08-18T06:50:44.778Z,58.97
2022-08-18T06:53:26.737Z,58.68
2022-08-18T06:55:54.030Z,58.61
2022-08-18T06:58:30.713Z,58.25
2022-08-18T07:01:02.949Z,57.63
2022-08-18T07:03:39.644Z,57.25
2022-08-18T07:06:11.628Z,57.35
2022-08-18T07:08:43.458Z,56.88
2022-08-18T07:11:25.657Z,57.32
2022-08-18T07:14:21.638Z,57.70
2022-08-18T07:16:58.739Z,57.10
2022-08-18T07:19:29.395Z,56.06
2022-08-18T07:22:05.656Z,56.36
2022-08-18T07:24:34.580Z,55.94
2022-08-18T07:27:03.130Z,55.36
2022-08-18T07:29:32.861Z,55.26
2022-08-18T07:32:21.169Z,54.22
2022-08-18T07:34:55.204Z,54.37
2022-08-18T07:37:51.199Z,54.62
2022-08-18T07:40:31.593Z,54.63
2022-08-18T07:43:48.095Z,54.26
2022-08-18T07:46:23.643Z,53.41
2022-08-18T07:48:52.270Z,53.18
2022-08-18T07:51:23.894Z,52.76
2022-08-18T07:54:54.289Z,52.94
2022-08-18T07:58:00.924Z,52.51
2022-08-18T08:01:00.213Z,52.50
2022-08-18T08:03:48.881Z,52.31
2022-08-18T08:07:00.567Z,51.57
2022-08-18T08:09:56.302Z,51.00
2022-08-18T08:12:32.364Z,50.64
2022-08-18T08:15:17.953Z,50.28
2022-08-18T08:18:36.718Z,49.84
2022-08-18T08:21:11.006Z,50.11
2022-08-18T08:24:01.232Z,49.01
2022-08-18T08:26:47.685Z,48.16
2022-08-18T08:29:41.413Z,48.49
2022-08-18T08:32:16.147Z,48.56
2022-08-18T08:34:57.535Z,48.59
2022-08-18T08:37:30.576Z,49.14
2022-08-18T08:40:38.225Z,48.91
2022-08-18T08:43:16.146Z,49.76
2022-08-18T08:46:00.589Z,49.52
2022-08-18T08:48:29.812Z,49.84
2022-08-18T08:51:01.619Z,49.98
2022-08-18T08:53:33.204Z,50.08
2022-08-18T08:56:04.155Z,50.49
2022-08-18T08:58:37.237Z,51.06
2022-08-18T09:01:04.286Z,51.70
2022-08-18T09:03:45.778Z,52.24
2022-08-18T09:06:35.256Z,53.00
2022-08-18T09:09:18.180Z,52.02
2022-08-18T09:12:12.163Z,51.38
2022-08-18T09:15:05.528Z,50.66
2022-08-18T09:17:41.798Z,50.86
2022-08-18T09:20:40.698Z,50.23
2022-08-18T09:23:28.846Z,51.10
2022-08-18T09:25:58.631Z,50.61
2022-08-18T09:28:28.570Z,50.23
2022-08-18T09:31:08.859Z,49.51
2022-08-18T09:33:49.395Z,50.35
2022-08-18T09:36:30.096Z,50.28
2022-08-18T09:39:23.228Z,50.06
2022-08-18T09:41:55.795Z,50.01
2022-08-18T09:44:48.863Z,50.01
2022-08-18T09:47:22.398Z,48.90
2022-08-18T09:50:26.755Z,49.44
2022-08-18T09:52:57.803Z,49.74
2022-08-18T09:55:24.970Z,49.82
2022-08-18T09:58:15.265Z,48.35
2022-08-18T10:00:44.258Z,47.68
2022-08-18T10:03:13.734Z,48.11
2022-08-18T10:05:41.736Z,48.17
2022-08-18T10:08:09.031Z,47.84
2022-08-18T10:11:00.400Z,46.93
2022-08-18T10:13:51.213Z,46.70
2022-08-18T10:16:23.892Z,47.75
2022-08-18T10:19:00.261Z,47.81
2022-08-18T10:21:31.487Z,47.88
2022-08-18T10:24:29.930Z,47.27
2022-08-18T10:26:54.530Z,47.93
2022-08-18T10:29:32.284Z,48.19
2022-08-18T10:32:00.063Z,48.26
2022-08-18T10:34:52.458Z,48.45
2022-08-18T10:37:44.935Z,48.30
2022-08-18T10:40:14.749Z,47.93
2022-08-18T10:42:45.321Z,47.22
2022-08-18T10:45:31.015Z,47.56
2022-08-18T10:48:19.304Z,48.00
2022-08-18T10:50:58.880Z,48.84
2022-08-18T10:53:43.969Z,49.31
2022-08-18T10:56:34.404Z,50.22
2022-08-18T10:59:19.895Z,52.31
2022-08-18T11:02:27.742Z,52.65
2022-08-18T11:04:58.934Z,52.73
2022-08-18T11:07:30.916Z,52.98
2022-08-18T11:10:28.063Z,54.08
2022-08-18T11:13:13.341Z,55.48
2022-08-18T11:15:53.230Z,55.33
2022-08-18T11:18:30.079Z,55.84
2022-08-18T11:21:41.825Z,56.63
2022-08-18T11:24:14.072Z,57.21
2022-08-18T11:26:56.153Z,57.41
2022-08-18T11:29:24.732Z,57.72
2022-08-18T11:31:54.915Z,58.20
2022-08-18T11:34:39.099Z,57.90
2022-08-18T11:37:51.848Z,57.62
2022-08-18T11:43:13.699Z,57.54
2022-08-18T11:45:48.236Z,57.50
2022-08-18T11:48:15.147Z,57.67
2022-08-18T11:53:44.256Z,57.85
2022-08-18T11:56:14.457Z,58.02
2022-08-18T11:58:50.460Z,57.76
2022-08-18T12:01:55.087Z,57.49
2022-08-18T12:04:26.342Z,57.69
2022-08-18T12:06:56.562Z,57.86
2022-08-18T12:12:28.557Z,57.62
2022-08-18T12:15:22.618Z,57.33
2022-08-18T12:17:53.183Z,57.42
2022-08-18T12:20:21.147Z,57.66
2022-08-18T12:22:49.729Z,57.69
2022-08-18T12:25:25.436Z,57.67
2022-08-18T12:27:54.184Z,57.91
2022-08-18T12:30:21.540Z,58.00
2022-08-18T12:32:49.931Z,58.03
2022-08-18T12:35:21.966Z,58.17
2022-08-18T12:38:12.987Z,58.39
2022-08-18T12:40:37.191Z,58.39
2022-08-18T12:43:05.864Z,58.53
2022-08-18T12:45:32.959Z,58.52
2022-08-18T12:50:54.711Z,58.54
2022-08-18T12:53:30.230Z,58.97
2022-08-18T12:56:22.925Z,58.86
2022-08-18T12:58:53.125Z,58.88
2022-08-18T13:01:20.307Z,59.11
2022-08-18T13:04:11.388Z,59.30
2022-08-18T13:06:46.948Z,59.36
2022-08-18T13:09:42.944Z,59.58
2022-08-18T13:12:16.294Z,59.79
2022-08-18T13:14:43.902Z,59.87
2022-08-18T13:17:29.684Z,60.00
2022-08-18T13:20:00.613Z,60.11
2022-08-18T13:22:32.844Z,60.06
2022-08-18T13:25:03.828Z,60.06
2022-08-18T13:27:35.270Z,59.84
2022-08-18T13:30:29.452Z,59.95
2022-08-18T13:32:58.823Z,60.47
2022-08-18T13:35:30.010Z,60.31
2022-08-18T13:38:14.317Z,60.33
2022-08-18T13:40:48.811Z,60.43
2022-08-18T13:43:17.390Z,60.41
2022-08-18T13:45:52.687Z,60.53
2022-08-18T13:48:21.313Z,60.67
2022-08-18T13:50:52.748Z,60.70
2022-08-18T13:53:20.127Z,60.86
2022-08-18T13:55:47.586Z,61.12
2022-08-18T13:58:20.253Z,61.28
2022-08-18T14:01:01.857Z,61.43
2022-08-18T14:03:47.674Z,60.85
2022-08-18T14:06:22.536Z,60.73
2022-08-18T14:08:52.003Z,60.72
2022-08-18T14:11:19.148Z,60.43
2022-08-18T14:13:47.117Z,60.18
2022-08-18T14:16:19.067Z,60.17
2022-08-18T14:19:10.437Z,60.10
2022-08-18T14:22:01.929Z,59.91
2022-08-18T14:24:49.315Z,59.86
2022-08-18T14:27:18.084Z,59.72
2022-08-18T14:29:48.015Z,59.59
2022-08-18T14:32:18.059Z,59.49
2022-08-18T14:34:50.836Z,59.52
2022-08-18T14:37:18.343Z,59.46
2022-08-18T14:39:48.087Z,59.08
2022-08-18T14:42:32.793Z,58.68
2022-08-18T14:45:26.697Z,58.78
2022-08-18T14:47:59.955Z,58.49
2022-08-18T14:50:26.932Z,58.31
2022-08-18T14:52:53.878Z,58.16
2022-08-18T14:55:20.930Z,57.91
2022-08-18T14:57:50.263Z,57.77
2022-08-18T15:00:20.884Z,57.68
2022-08-18T15:02:49.446Z,57.54
2022-08-18T15:05:19.502Z,57.55
2022-08-18T15:07:51.429Z,57.40
2022-08-18T15:10:19.950Z,57.26
2022-08-18T15:12:51.647Z,57.12
2022-08-18T15:15:19.139Z,57.41
2022-08-18T15:17:52.558Z,57.60
2022-08-18T15:20:28.886Z,57.60
2022-08-18T15:23:24.760Z,57.70
2022-08-18T15:25:55.112Z,57.82
2022-08-18T15:28:25.314Z,57.49
2022-08-18T15:31:16.553Z,57.61
2022-08-18T15:33:39.464Z,57.56
2022-08-18T15:36:09.941Z,57.55
2022-08-18T15:38:37.355Z,57.68
2022-08-18T15:41:06.259Z,57.70
2022-08-18T15:43:45.908Z,57.84
2022-08-18T15:46:16.601Z,57.97
2022-08-18T15:48:43.817Z,57.87
2022-08-18T15:51:12.008Z,57.91
2022-08-18T15:53:44.563Z,57.94
2022-08-18T15:56:21.026Z,57.87
2022-08-18T15:58:49.124Z,57.92
2022-08-18T16:01:30.606Z,58.31
2022-08-18T16:04:01.491Z,58.51
2022-08-18T16:06:32.499Z,58.73
2022-08-18T16:08:59.840Z,58.77
2022-08-18T16:11:29.143Z,58.80
2022-08-18T16:13:59.014Z,59.02
2022-08-18T16:16:29.123Z,59.04
2022-08-18T16:19:08.033Z,59.23
2022-08-18T16:21:38.664Z,59.25
2022-08-18T16:24:05.821Z,59.33
2022-08-18T16:26:32.873Z,59.06
2022-08-18T16:29:01.799Z,59.23
2022-08-18T16:31:29.642Z,59.36
2022-08-18T16:33:57.410Z,59.43
2022-08-18T16:36:25.826Z,59.49
2022-08-18T16:38:53.771Z,59.46
2022-08-18T16:41:23.075Z,59.43
2022-08-18T16:43:50.024Z,59.58
2022-08-18T16:46:21.513Z,59.66
2022-08-18T16:48:49.599Z,59.62
2022-08-18T16:51:17.561Z,59.62
2022-08-18T16:53:46.322Z,59.79
2022-08-18T16:56:18.899Z,59.87
2022-08-18T16:59:05.453Z,59.92
2022-08-18T17:01:53.533Z,59.88
2022-08-18T17:04:22.834Z,59.91
2022-08-18T17:06:50.322Z,60.07
2022-08-18T17:09:18.296Z,60.05
2022-08-18T17:11:51.255Z,59.94
2022-08-18T17:14:19.867Z,60.17
2022-08-18T17:16:48.490Z,60.29
2022-08-18T17:19:15.448Z,60.46
2022-08-18T17:21:42.349Z,60.64
2022-08-18T17:24:10.527Z,60.60
2022-08-18T17:27:05.912Z,60.69
2022-08-18T17:29:53.569Z,60.54
2022-08-18T17:32:25.122Z,60.68
2022-08-18T17:35:04.679Z,60.74
2022-08-18T17:37:31.757Z,60.70
2022-08-18T17:40:05.020Z,60.74
2022-08-18T17:42:33.781Z,60.93
2022-08-18T17:45:21.632Z,61.14
2022-08-18T17:48:11.804Z,61.04
2022-08-18T17:51:09.095Z,61.27
2022-08-18T17:53:38.973Z,61.34
2022-08-18T17:56:35.086Z,61.28
2022-08-18T17:59:07.417Z,61.29
2022-08-18T18:02:24.554Z,61.40
2022-08-18T18:04:59.545Z,61.37
2022-08-18T18:07:32.910Z,61.43
2022-08-18T18:10:03.607Z,61.51
2022-08-18T18:12:31.825Z,61.54
2022-08-18T18:14:59.385Z,61.67
2022-08-18T18:17:30.320Z,61.80
2022-08-18T18:20:22.148Z,61.82
2022-08-18T18:22:49.098Z,61.87
2022-08-18T18:25:34.563Z,61.90
2022-08-18T18:28:01.841Z,61.89
2022-08-18T18:30:32.990Z,62.02
2022-08-18T18:33:02.898Z,62.01
2022-08-18T18:35:54.403Z,62.10
2022-08-18T18:38:30.292Z,62.07
2022-08-18T18:41:20.690Z,62.30
2022-08-18T18:43:49.182Z,62.36
2022-08-18T18:46:27.494Z,62.38
2022-08-18T18:49:19.330Z,62.45
2022-08-18T18:51:47.612Z,62.49
2022-08-18T18:54:33.085Z,62.61
2022-08-18T18:57:00.356Z,62.68
2022-08-18T18:59:46.396Z,62.82
2022-08-18T19:02:41.568Z,62.63
2022-08-18T19:05:11.386Z,62.52
2022-08-18T19:07:48.983Z,62.57
2022-08-18T19:10:37.734Z,62.67
2022-08-18T19:13:32.458Z,62.67
2022-08-18T19:16:06.500Z,62.70
2022-08-18T19:18:41.285Z,62.66
2022-08-18T19:22:04.396Z,62.65
2022-08-18T19:24:03.306Z,62.72
2022-08-18T19:26:39.976Z,62.72
2022-08-18T19:29:14.108Z,62.82
2022-08-18T19:31:49.918Z,62.65
2022-08-18T19:34:31.204Z,62.72
2022-08-18T19:37:13.822Z,62.83
2022-08-18T19:39:54.739Z,62.86
2022-08-18T19:42:35.284Z,62.86
2022-08-18T19:45:17.000Z,62.81
2022-08-18T19:48:07.156Z,62.85
2022-08-18T19:50:35.808Z,62.84
2022-08-18T19:53:22.880Z,62.84
2022-08-18T19:56:14.541Z,62.69
2022-08-18T19:59:15.596Z,62.73
2022-08-18T20:01:55.376Z,62.72
2022-08-18T20:04:33.722Z,62.93
2022-08-18T20:07:28.527Z,62.96
2022-08-18T20:10:01.448Z,62.81
2022-08-18T20:13:06.151Z,62.86
2022-08-18T20:15:33.139Z,63.03
2022-08-18T20:18:03.077Z,62.97
2022-08-18T20:20:32.010Z,63.12
2022-08-18T20:22:59.553Z,63.23
2022-08-18T20:25:45.251Z,63.03
2022-08-18T20:28:13.015Z,63.27
2022-08-18T20:30:40.046Z,63.30
2022-08-18T20:33:19.809Z,63.32
2022-08-18T20:36:10.716Z,63.36
2022-08-18T20:38:37.660Z,63.40
2022-08-18T20:41:23.352Z,63.36
2022-08-18T20:43:59.307Z,63.32
2022-08-18T20:46:43.417Z,63.24
2022-08-18T20:49:42.857Z,63.30
2022-08-18T20:52:35.859Z,63.38
2022-08-18T20:55:21.208Z,63.56
2022-08-18T20:57:51.277Z,63.56
2022-08-18T21:00:27.341Z,63.67
2022-08-18T21:02:59.265Z,63.77
2022-08-18T21:05:34.461Z,63.77
2022-08-18T21:08:13.403Z,63.80
2022-08-18T21:10:57.483Z,63.80
2022-08-18T21:13:31.250Z,63.83
2022-08-18T21:15:58.707Z,63.71
2022-08-18T21:18:26.471Z,63.83
2022-08-18T21:20:55.446Z,63.99
2022-08-18T21:23:27.127Z,63.87
2022-08-18T21:25:57.970Z,63.95
2022-08-18T21:28:26.145Z,63.95
2022-08-18T21:31:30.813Z,63.92
2022-08-18T21:34:10.220Z,64.03
2022-08-18T21:36:39.926Z,64.01
2022-08-18T21:39:09.600Z,64.16
2022-08-18T21:41:46.521Z,64.21
2022-08-18T21:44:44.696Z,64.17
2022-08-18T21:47:38.062Z,64.26
2022-08-18T21:50:16.240Z,64.29
2022-08-18T21:53:12.440Z,64.19
2022-08-18T21:55:42.563Z,64.13
2022-08-18T21:58:18.521Z,64.17
2022-08-18T22:01:07.571Z,64.23
2022-08-18T22:03:35.153Z,64.23
2022-08-18T22:06:21.120Z,64.17
2022-08-18T22:09:28.517Z,64.05
2022-08-18T22:12:42.367Z,64.10
2022-08-18T22:15:27.647Z,64.20
2022-08-18T22:17:57.670Z,64.19
2022-08-18T22:20:36.900Z,64.10
2022-08-18T22:23:28.630Z,64.12
2022-08-18T22:26:12.608Z,64.12
2022-08-18T22:28:57.654Z,64.05
2022-08-18T22:31:26.038Z,64.14
2022-08-18T22:33:55.857Z,64.15
2022-08-18T22:36:27.773Z,64.26
2022-08-18T22:38:54.769Z,64.20
2022-08-18T22:41:21.816Z,64.20
2022-08-18T22:43:54.723Z,64.25
2022-08-18T22:46:24.915Z,64.28
2022-08-18T22:48:52.865Z,64.20
2022-08-18T22:51:21.871Z,64.24
2022-08-18T22:53:48.842Z,64.33
2022-08-18T22:56:15.792Z,64.39
2022-08-18T22:58:49.805Z,64.36
2022-08-18T23:01:17.877Z,64.41
2022-08-18T23:03:44.913Z,64.49
2022-08-18T23:06:11.983Z,64.55
2022-08-18T23:08:54.425Z,64.57
2022-08-18T23:11:24.414Z,64.57
2022-08-18T23:13:51.365Z,64.68
2022-08-18T23:16:31.302Z,64.61
2022-08-18T23:19:03.086Z,64.56
2022-08-18T23:21:34.466Z,64.58
2022-08-18T23:24:07.217Z,64.53
2022-08-18T23:26:34.570Z,64.62
2022-08-18T23:29:02.371Z,64.65
2022-08-18T23:31:30.614Z,64.63
2022-08-18T23:33:59.777Z,64.73
2022-08-18T23:36:30.656Z,64.77
2022-08-18T23:38:57.704Z,64.80
2022-08-18T23:41:24.651Z,64.76
2022-08-18T23:43:51.594Z,64.72
2022-08-18T23:46:22.573Z,64.76
2022-08-18T23:48:50.878Z,64.72
2022-08-18T23:51:29.651Z,64.68
2022-08-18T23:53:59.211Z,64.66
2022-08-18T23:56:31.124Z,64.66
2022-08-18T23:58:58.376Z,64.74
